Afton, Michigan
Current Conditions -  °F | °C
As of 7:57 PM on Friday 19 Dec 2014 (Local Time) from KSLH Reporting Station
Clear Clear  
Wind Chill: 12°   Ceiling: Unl
Heat Index: 12°   Visibility: 10mi
Dew Point: 10°   Wind: 0mph
Humidity: 93%   Direction: NA
Pressure: 30.31"   Gusts: NA
Location:  45.36°N, 84.47°W
Report Text: KSLH 200057Z AUTO 00000KT 10SM CLR M11/M12 A3031 RMK AO2 T11111120
Loading
Personal Weather Stations






























Interactive Weather Map New forecast layout! Learn more

10-Day Weather Forecast

Advertisements
Track Severe Weather on mobile